Historyczne dane pomiarowe

Dodano dane terminowe – wersja testowa.

Dane z okresu 1951-2019

Wersja bazy: 1.34 [2019-03-16, lista zmian], aktualizacja planowana na 2019-04-15

Dane meteo z obszaru Polski uzyskane na podstawie danych udostępnionych przez Instytut Meteorologii i Gospodarki Wodnej – Państwowy Instytut Badawczy.

 

Wybierz Datę:    

       

TemperaturaWilgotnośćZachmurzenieWiatrCiśnienieWidzialnośćZjawiska
 Data    tng td wb rh cc ccl cl cm ch dir g1 g2 mslp ppp      
1999-07-14 00:00:00 18.8--- 17.3 17.891wxwx2wx--1001.8 979.5 0.0---wx
1999-07-14 01:00:00 18.5--- 17.1 17.692wxwxwx2wx--1001.4 979.1----wx
1999-07-14 02:00:00 18.6--- 16.7 17.489wxwxwx2wx--1001.0 978.7----wx
1999-07-14 03:00:00 17.7--- 16.6 17.093wxwxwx1wx--1001.0 978.6----wx
1999-07-14 04:00:00 17.5--- 16.7 17.095wxwxwxwx1wx--1001.1 978.7----wx
1999-07-14 05:00:00 17.7--- 16.9 17.295wxwxwxwx2wx--1001.3 978.9----wx
1999-07-14 06:00:00 18.8--- 17.6 18.093wxwxwx2wx--1001.2 978.9 0.0---wx
1999-07-14 07:00:00 20.1--- 17.3 18.384wxwxwxwx4wx--1000.8 978.6----wx
1999-07-14 08:00:00 20.4--- 17.8 18.785wxwxwxwx3wx--1001.2 979.0----wx
1999-07-14 09:00:00 20.9--- 17.9 18.983wxwxwxwx3wx--1001.3 979.2----wx
1999-07-14 10:00:00 20.6--- 18.5 19.288wxwxwx3wx--1001.5 979.4----wxw1
1999-07-14 11:00:00 21.0--- 18.1 19.184wxwxwxwx2wx--1001.1 979.0----wx
1999-07-14 12:00:00 21.2--- 17.9 19.081wxwxwxwx3wx--1001.3 979.2 1.0---wxw1
1999-07-14 13:00:00 19.1--- 17.4 18.090wxwxwx4wx--1002.2 979.9----wxw1
1999-07-14 14:00:00 18.6--- 17.4 17.893wxwxwx4wx--1002.8 980.5----wxw1
1999-07-14 15:00:00 17.4--- 16.8 17.096wxwxwx3wx--1003.3 980.9----wxw1
1999-07-14 16:00:00 18.0--- 15.4 16.485wxwxwx4wx--1003.6 981.2----wx
1999-07-14 17:00:00 17.8--- 14.2 15.680wxwxwx5wx--1004.1 981.7----wx
1999-07-14 18:00:00 17.4--- 15.3 16.188wxwxwx4wx--1004.6 982.1 2.4---wxw1
1999-07-14 19:00:00 17.4--- 15.3 16.188wxwxwxwx3wx--1005.1 982.6----wx
1999-07-14 20:00:00 17.3--- 14.9 15.886wxwxwxwx4wx--1005.7 983.2----wx
1999-07-14 21:00:00 16.2--- 13.5 14.684wxwxwxwx5wx--1006.6 984.0----wx
1999-07-14 22:00:00 15.6--- 13.1 14.185wxwxwxwx4wx--1007.4 984.7----wx
1999-07-14 23:00:00 15.2--- 12.7 13.785wxwxwx4wx--1007.8 985.1----wx

 

Źródłem pochodzenia danych jest Instytut Meteorologii i Gospodarki Wodnej – Państwowy Instytut Badawczy. Dane Instytutu Meteorologii i Gospodarki Wodnej – Państwowego Instytutu Badawczego zostały przetworzone.

Dane źródłowe można odnaleźć na stronie https://dane.imgw.pl